Time;durP1;ratioP1;P1;durP2;ratioP2;P2;SDS_P1;SDS_P2;PMS_P1;PMS_P2;Temp;Humidity;BMP_temperature;BMP_pressure;BME280_temperature;BME280_humidity;BME280_pressure;Samples;Min_cycle;Max_cycle;Signal;HPM_P1;HPM_P2
2022/07/01 00:00:52;;;;;;;;;;;;;;;-142.75;100.00;76887.22;4934109;29;19929;-66
2022/07/01 00:03:17;;;;;;;;;;;;;;;-142.75;100.00;76893.13;4934277;29;19965;-66
2022/07/01 00:05:42;;;;;;;;;;;;;;;-142.75;100.00;76895.09;4934052;29;19977;-66
2022/07/01 00:08:08;;;;;;;;;;;;;;;-142.75;100.00;76902.97;4933681;29;19977;-66
2022/07/01 00:10:33;;;;;;;;;;;;;;;-142.75;100.00;76904.94;4933833;29;19915;-66
2022/07/01 00:12:58;;;;;;;;;;;;;;;-142.75;100.00;76893.13;4933958;29;19915;-67
2022/07/01 00:15:24;;;;;;;;;;;;;;;-142.75;100.00;76904.94;4933904;29;19914;-66
2022/07/01 00:17:49;;;;;;;;;;;;;;;-142.75;100.00;76906.91;4933865;29;19919;-66
2022/07/01 00:20:14;;;;;;;;;;;;;;;-142.75;100.00;76899.03;4933660;29;19980;-66
2022/07/01 00:22:40;;;;;;;;;;;;;;;-142.75;100.00;76901.00;4933781;29;19926;-66
2022/07/01 00:25:06;;;;;;;;;;;;;;;-142.75;100.00;76916.75;4933865;29;19915;-66
2022/07/01 00:27:31;;;;;;;;;;;;;;;-142.75;100.00;76918.72;4933640;29;19915;-66
2022/07/01 00:29:56;;;;;;;;;;;;;;;-142.75;100.00;76922.66;4933446;29;19915;-66
2022/07/01 00:32:22;;;;;;;;;;;;;;;-142.75;100.00;76938.41;4933739;29;20001;-66
2022/07/01 00:34:47;;;;;;;;;;;;;;;-142.75;100.00;76938.41;4932548;28;20292;-66
2022/07/01 00:37:12;;;;;;;;;;;;;;;-142.75;100.00;76920.69;4933443;29;20357;-66
2022/07/01 00:39:38;;;;;;;;;;;;;;;-142.75;100.00;76924.63;4933399;29;19922;-66
2022/07/01 00:42:04;;;;;;;;;;;;;;;-142.75;100.00;76924.63;4933442;29;20397;-66
2022/07/01 00:44:30;;;;;;;;;;;;;;;-142.75;100.00;76918.72;4933461;29;20401;-66
2022/07/01 00:46:55;;;;;;;;;;;;;;;-142.75;100.00;76924.63;4933403;29;19915;-66
2022/07/01 00:49:21;;;;;;;;;;;;;;;-142.75;100.00;76930.53;4933267;29;19961;-66
2022/07/01 00:51:47;;;;;;;;;;;;;;;-142.75;100.00;76934.47;4933382;29;19938;-66
2022/07/01 00:54:13;;;;;;;;;;;;;;;-142.75;100.00;76932.50;4933397;29;19954;-66
2022/07/01 00:56:38;;;;;;;;;;;;;;;-142.75;100.00;76938.41;4933236;29;19958;-65
2022/07/01 00:59:03;;;;;;;;;;;;;;;-142.75;100.00;76946.28;4932986;29;19915;-66
2022/07/01 01:01:29;;;;;;;;;;;;;;;-142.75;100.00;76938.41;4933168;29;19919;-66
2022/07/01 01:03:55;;;;;;;;;;;;;;;-142.75;100.00;76940.38;4933280;29;19914;-66
2022/07/01 01:06:20;;;;;;;;;;;;;;;-142.75;100.00;76938.41;4933149;29;19918;-66
2022/07/01 01:08:46;;;;;;;;;;;;;;;-142.75;100.00;76938.41;4932831;29;19915;-66
2022/07/01 01:11:11;;;;;;;;;;;;;;;-142.75;100.00;76938.41;4933093;29;19915;-66
2022/07/01 01:13:36;;;;;;;;;;;;;;;-142.75;100.00;76936.44;4933040;29;19922;-66
2022/07/01 01:16:01;;;;;;;;;;;;;;;-142.75;100.00;76930.53;4933036;29;19976;-66
2022/07/01 01:18:27;;;;;;;;;;;;;;;-142.75;100.00;76944.31;4932840;29;20396;-66
2022/07/01 01:20:53;;;;;;;;;;;;;;;-142.75;100.00;76934.47;4932875;29;19918;-65
2022/07/01 01:23:18;;;;;;;;;;;;;;;-142.75;100.00;76934.47;4932274;29;20376;-66
2022/07/01 01:25:43;;;;;;;;;;;;;;;-142.75;100.00;76934.47;4932916;29;19968;-66
2022/07/01 01:28:10;;;;;;;;;;;;;;;-142.75;100.00;76956.13;4932431;29;19961;-66
2022/07/01 01:30:35;;;;;;;;;;;;;;;-142.75;100.00;76944.31;4932826;29;19925;-66
2022/07/01 01:33:00;;;;;;;;;;;;;;;-142.75;100.00;76956.13;4932802;29;20005;-66
2022/07/01 01:35:26;;;;;;;;;;;;;;;-142.75;100.00;76948.25;4932794;29;19931;-66
2022/07/01 01:37:51;;;;;;;;;;;;;;;-142.75;100.00;76952.19;4932397;29;20357;-66
2022/07/01 01:40:16;;;;;;;;;;;;;;;-142.75;100.00;76958.09;4932648;29;19915;-66
2022/07/01 01:42:42;;;;;;;;;;;;;;;-142.75;100.00;76967.94;4932595;29;19922;-66
2022/07/01 01:45:08;;;;;;;;;;;;;;;-142.75;100.00;76973.84;4932671;29;20416;-66
2022/07/01 01:47:33;;;;;;;;;;;;;;;-142.75;100.00;76979.75;4932488;29;19915;-66
2022/07/01 01:49:58;;;;;;;;;;;;;;;-142.75;100.00;76995.50;4932305;29;19918;-66
2022/07/01 01:52:24;;;;;;;;;;;;;;;-142.75;100.00;76989.59;4932545;29;20013;-66
2022/07/01 01:54:49;;;;;;;;;;;;;;;-142.75;100.00;76989.59;4932555;29;19922;-66
2022/07/01 01:57:14;;;;;;;;;;;;;;;-142.75;100.00;76979.75;4932354;29;19915;-66
2022/07/01 01:59:39;;;;;;;;;;;;;;;-142.75;100.00;76971.88;4932190;29;19994;-66
2022/07/01 02:02:05;;;;;;;;;;;;;;;-142.75;100.00;76973.84;4932334;29;20014;-66
2022/07/01 02:04:30;;;;;;;;;;;;;;;-142.75;100.00;76973.84;4932373;29;19925;-66
2022/07/01 02:06:55;;;;;;;;;;;;;;;-142.75;100.00;76973.84;4932266;29;19915;-66
2022/07/01 02:09:21;;;;;;;;;;;;;;;-142.75;100.00;76991.56;4932083;29;20344;-66
2022/07/01 02:11:46;;;;;;;;;;;;;;;-142.75;100.00;76993.53;4932212;29;20001;-66
2022/07/01 02:14:11;;;;;;;;;;;;;;;-142.75;100.00;77001.41;4932315;29;19984;-66
2022/07/01 02:16:36;;;;;;;;;;;;;;;-142.75;100.00;76995.50;4932342;29;20373;-66
2022/07/01 02:19:01;;;;;;;;;;;;;;;-142.75;100.00;76997.47;4931802;29;19919;-66
2022/07/01 02:21:28;;;;;;;;;;;;;;;-142.75;100.00;77007.31;4932153;29;19919;-66
2022/07/01 02:23:53;;;;;;;;;;;;;;;-142.75;100.00;77015.19;4932168;29;19972;-66
2022/07/01 02:26:19;;;;;;;;;;;;;;;-142.75;100.00;77015.19;4932096;29;19950;-66
2022/07/01 02:28:44;;;;;;;;;;;;;;;-142.75;100.00;76995.50;4931756;29;19950;-66
2022/07/01 02:31:09;;;;;;;;;;;;;;;-142.75;100.00;77005.34;4932145;29;19919;-66
2022/07/01 02:33:35;;;;;;;;;;;;;;;-142.75;100.00;77009.28;4932021;29;19926;-66
2022/07/01 02:36:00;;;;;;;;;;;;;;;-142.75;100.00;77013.22;4934509;29;20301;-66
2022/07/01 02:38:25;;;;;;;;;;;;;;;-142.75;100.00;77015.19;4934901;29;19926;-66
2022/07/01 02:40:50;;;;;;;;;;;;;;;-142.75;100.00;77013.22;4935257;29;20368;-66
2022/07/01 02:43:16;;;;;;;;;;;;;;;-142.75;100.00;77009.28;4935264;29;19994;-66
2022/07/01 02:45:41;;;;;;;;;;;;;;;-142.75;100.00;77007.31;4935346;29;19915;-66
2022/07/01 02:48:07;;;;;;;;;;;;;;;-142.75;100.00;77001.41;4934887;29;20010;-66
2022/07/01 02:50:32;;;;;;;;;;;;;;;-142.75;100.00;76997.47;4935256;29;20372;-66
2022/07/01 02:52:57;;;;;;;;;;;;;;;-142.75;100.00;76995.50;4935194;29;20309;-66
2022/07/01 02:55:22;;;;;;;;;;;;;;;-142.75;100.00;77009.28;4935161;29;19961;-66
2022/07/01 02:57:51;;;;;;;;;;;;;;;-142.75;100.00;77011.25;4934782;29;20638;-66
2022/07/01 03:00:17;;;;;;;;;;;;;;;-142.75;100.00;77019.13;4935001;29;19915;-66
2022/07/01 03:02:42;;;;;;;;;;;;;;;-142.75;100.00;77027.00;4934977;29;19922;-66
2022/07/01 03:05:08;;;;;;;;;;;;;;;-142.75;100.00;77015.19;4935002;29;19950;-66
2022/07/01 03:07:34;;;;;;;;;;;;;;;-142.75;100.00;77017.16;4934835;29;20003;-66
2022/07/01 03:10:00;;;;;;;;;;;;;;;-142.75;100.00;77019.13;4934660;29;20295;-66
2022/07/01 03:12:25;;;;;;;;;;;;;;;-142.75;100.00;77015.19;4934811;28;19915;-66
2022/07/01 03:14:51;;;;;;;;;;;;;;;-142.75;100.00;77009.28;4934865;29;19915;-66
2022/07/01 03:17:16;;;;;;;;;;;;;;;-142.75;100.00;77005.34;4934703;29;20281;-66
2022/07/01 03:19:41;;;;;;;;;;;;;;;-142.75;100.00;77001.41;4934589;29;19915;-66
2022/07/01 03:22:07;;;;;;;;;;;;;;;-142.75;100.00;77013.22;4934751;29;19942;-66
2022/07/01 03:24:32;;;;;;;;;;;;;;;-142.75;100.00;77015.19;4934691;29;19915;-64
2022/07/01 03:26:59;;;;;;;;;;;;;;;-142.75;100.00;77015.19;4934513;29;20021;-66
2022/07/01 03:29:24;;;;;;;;;;;;;;;-142.75;100.00;77027.00;4934398;29;20308;-66
2022/07/01 03:31:49;;;;;;;;;;;;;;;-142.75;100.00;77028.97;4934678;29;19920;-66
2022/07/01 03:34:14;;;;;;;;;;;;;;;-142.75;100.00;77032.91;4934588;29;19922;-66
2022/07/01 03:36:39;;;;;;;;;;;;;;;-142.75;100.00;77038.81;4933214;29;20048;-66
2022/07/01 03:39:05;;;;;;;;;;;;;;;-142.75;100.00;77042.75;5048612;22;19932;-68
2022/07/01 03:41:30;;;;;;;;;;;;;;;-142.75;100.00;77034.88;5053420;28;20000;-67
2022/07/01 03:43:55;;;;;;;;;;;;;;;-142.75;100.00;77030.94;5054356;28;19912;-69
2022/07/01 03:46:20;;;;;;;;;;;;;;;-142.75;100.00;77030.94;5054255;28;20012;-69
2022/07/01 03:48:45;;;;;;;;;;;;;;;-142.75;100.00;77034.88;5054269;28;20504;-68
2022/07/01 03:51:11;;;;;;;;;;;;;;;-142.75;100.00;77042.75;5054517;28;19913;-69
2022/07/01 03:56:20;;;;;;;;;;;;;;;-142.75;100.00;77050.63;5054868;28;19919;-68
2022/07/01 03:58:45;;;;;;;;;;;;;;;-142.75;100.00;77050.63;5054042;28;19991;-69
2022/07/01 04:01:10;;;;;;;;;;;;;;;-142.75;100.00;77046.69;5054334;28;19916;-69
2022/07/01 04:03:36;;;;;;;;;;;;;;;-142.75;100.00;77040.78;5054340;28;19913;-69
2022/07/01 04:06:01;;;;;;;;;;;;;;;-142.75;100.00;77032.91;5054242;28;19913;-69
2022/07/01 04:08:26;;;;;;;;;;;;;;;-142.75;100.00;77036.84;5053864;28;19913;-69
2022/07/01 04:10:53;;;;;;;;;;;;;;;-142.75;100.00;77046.69;5036259;28;19921;-69
2022/07/01 04:13:18;;;;;;;;;;;;;;;-142.75;100.00;77050.63;5054126;28;20015;-69
2022/07/01 04:15:44;;;;;;;;;;;;;;;-142.75;100.00;77058.50;5054253;28;20078;-69
2022/07/01 04:18:09;;;;;;;;;;;;;;;-142.75;100.00;77060.47;5035792;28;20002;-69
2022/07/01 04:20:34;;;;;;;;;;;;;;;-142.75;100.00;77062.44;5053923;28;19921;-69
2022/07/01 04:22:59;;;;;;;;;;;;;;;-142.75;100.00;77054.56;5036086;28;19920;-69
2022/07/01 04:25:25;;;;;;;;;;;;;;;-142.75;100.00;77058.50;5053788;28;19917;-69
2022/07/01 04:27:50;;;;;;;;;;;;;;;-142.75;100.00;77056.53;5053638;28;19920;-68
2022/07/01 04:30:15;;;;;;;;;;;;;;;-142.75;100.00;77058.50;5053649;28;19952;-68
2022/07/01 04:32:41;;;;;;;;;;;;;;;-142.75;100.00;77058.50;5053757;28;20382;-69
2022/07/01 04:35:07;;;;;;;;;;;;;;;-142.75;100.00;77066.38;5053741;28;19928;-69
2022/07/01 04:37:32;;;;;;;;;;;;;;;-142.75;100.00;77066.38;5053504;28;19924;-69
2022/07/01 04:39:58;;;;;;;;;;;;;;;-142.75;100.00;77074.25;5053303;28;20359;-69
2022/07/01 04:42:23;;;;;;;;;;;;;;;-142.75;100.00;77086.06;5053575;28;19952;-69
2022/07/01 04:44:48;;;;;;;;;;;;;;;-142.75;100.00;77076.22;5053496;28;20370;-69
2022/07/01 04:47:14;;;;;;;;;;;;;;;-142.75;100.00;77070.31;5035144;28;20393;-68
2022/07/01 04:49:39;;;;;;;;;;;;;;;-142.75;100.00;77058.50;5053127;28;19912;-69
2022/07/01 04:52:04;;;;;;;;;;;;;;;-142.75;100.00;77050.63;5053459;28;19912;-69
2022/07/01 04:54:29;;;;;;;;;;;;;;;-142.75;100.00;77046.69;5053338;28;20619;-69
2022/07/01 04:56:55;;;;;;;;;;;;;;;-142.75;100.00;77066.38;5052859;28;20050;-69
2022/07/01 04:59:20;;;;;;;;;;;;;;;-142.75;100.00;77076.22;5052507;28;20016;-69
2022/07/01 05:01:49;;;;;;;;;;;;;;;-142.75;100.00;77070.31;5053081;28;20017;-69
2022/07/01 05:04:15;;;;;;;;;;;;;;;-142.75;100.00;77070.31;5053169;28;19913;-68
2022/07/01 05:06:41;;;;;;;;;;;;;;;-142.75;100.00;77076.22;5053098;28;20386;-69
2022/07/01 05:09:06;;;;;;;;;;;;;;;-142.75;100.00;77058.50;5052581;28;19927;-68
2022/07/01 05:11:31;;;;;;;;;;;;;;;-142.75;100.00;77050.63;5053098;28;19913;-69
2022/07/01 05:13:56;;;;;;;;;;;;;;;-142.75;100.00;77050.63;5053012;28;20286;-69
2022/07/01 05:16:22;;;;;;;;;;;;;;;-142.75;100.00;77050.63;5035038;28;19923;-69
2022/07/01 05:24:14;;;;;;;;;;;;;;;-142.75;100.00;77017.16;5053117;28;19920;-69
2022/07/01 05:26:40;;;;;;;;;;;;;;;-142.75;100.00;76995.50;5052796;28;19913;-69
2022/07/01 05:29:05;;;;;;;;;;;;;;;-142.75;100.00;76995.50;5034296;28;19913;-68
2022/07/01 05:31:30;;;;;;;;;;;;;;;-142.75;100.00;76987.63;5044003;28;19923;-69
2022/07/01 05:33:55;;;;;;;;;;;;;;;-142.75;100.00;76999.44;5040292;28;19932;-68
2022/07/01 05:36:21;;;;;;;;;;;;;;;-142.75;100.00;76983.69;5044739;28;19975;-68
2022/07/01 05:38:46;;;;;;;;;;;;;;;-142.75;100.00;76981.72;5033021;28;19923;-68
2022/07/01 05:41:12;;;;;;;;;;;;;;;-142.75;100.00;76989.59;5033734;28;19923;-68
2022/07/01 05:43:37;;;;;;;;;;;;;;;-142.75;100.00;76967.94;5051535;28;19913;-68
2022/07/01 05:46:02;;;;;;;;;;;;;;;-142.75;100.00;76954.16;5051611;28;19924;-68
2022/07/01 05:48:28;;;;;;;;;;;;;;;-142.75;100.00;76956.13;5050873;28;20367;-69
2022/07/01 05:50:53;;;;;;;;;;;;;;;-142.75;100.00;76950.22;5051260;28;19986;-68
2022/07/01 05:53:18;;;;;;;;;;;;;;;-142.75;100.00;76956.13;5051723;28;19920;-68
2022/07/01 05:55:44;;;;;;;;;;;;;;;-142.75;100.00;76983.69;5051348;28;19913;-68
2022/07/01 05:58:12;;;;;;;;;;;;;;;-142.75;100.00;76964.00;5050998;28;19917;-68
2022/07/01 06:00:41;;;;;;;;;;;;;;;-142.75;100.00;76964.00;5051267;28;19917;-67
2022/07/01 06:03:07;;;;;;;;;;;;;;;-142.75;100.00;76952.19;5051061;28;20106;-68
2022/07/01 06:05:32;;;;;;;;;;;;;;;-142.75;100.00;76942.34;5051196;28;19990;-68
2022/07/01 06:07:57;;;;;;;;;;;;;;;-142.75;100.00;76938.41;5050983;28;19919;-68
2022/07/01 06:10:22;;;;;;;;;;;;;;;-142.75;100.00;76932.50;5050866;28;20436;-68
2022/07/01 06:12:47;;;;;;;;;;;;;;;-142.75;100.00;76926.59;5050998;28;19943;-67
2022/07/01 06:15:13;;;;;;;;;;;;;;;-142.75;100.00;76928.56;5051074;28;20275;-68
2022/07/01 06:17:39;;;;;;;;;;;;;;;-142.75;100.00;76912.81;5050725;28;19916;-68
2022/07/01 06:20:06;;;;;;;;;;;;;;;-142.75;100.00;76901.00;5050879;28;19916;-68
2022/07/01 06:22:31;;;;;;;;;;;;;;;-142.75;100.00;76889.19;5050934;28;20298;-68
2022/07/01 06:24:56;;;;;;;;;;;;;;;-142.75;100.00;76871.47;5051068;28;19913;-68
2022/07/01 06:27:22;;;;;;;;;;;;;;;-142.75;100.00;76849.81;5051092;28;19959;-68
2022/07/01 06:29:47;;;;;;;;;;;;;;;-142.75;100.00;76814.38;5050662;28;20335;-68
2022/07/01 06:32:12;;;;;;;;;;;;;;;-142.75;100.00;76800.63;5050727;28;19960;-68
2022/07/01 06:34:38;;;;;;;;;;;;;;;-142.75;100.00;76778.97;5051079;28;20433;-68
2022/07/01 06:37:03;;;;;;;;;;;;;;;-142.75;100.00;76771.09;5050870;28;19913;-69
2022/07/01 06:39:29;;;;;;;;;;;;;;;-142.75;100.00;76755.34;5050583;28;19962;-69
2022/07/01 06:41:54;;;;;;;;;;;;;;;-142.75;100.00;76743.53;5050937;28;20382;-67
2022/07/01 06:44:20;;;;;;;;;;;;;;;-142.75;100.00;76715.97;5033057;28;20010;-68
2022/07/01 06:46:45;;;;;;;;;;;;;;;-142.75;100.00;76700.22;5033056;28;19913;-68
2022/07/01 06:49:10;;;;;;;;;;;;;;;-142.75;100.00;76694.31;5050314;28;19923;-68
2022/07/01 06:51:36;;;;;;;;;;;;;;;-142.75;100.00;76688.41;5049724;28;20331;-68
2022/07/01 06:54:01;;;;;;;;;;;;;;;-142.75;100.00;76668.72;5033025;28;19995;-68
2022/07/01 06:56:26;;;;;;;;;;;;;;;-142.75;100.00;76654.94;5050805;28;19936;-68
2022/07/01 06:58:52;;;;;;;;;;;;;;;-142.75;100.00;76645.09;5032585;28;20365;-69
2022/07/01 07:01:17;;;;;;;;;;;;;;;-142.75;100.00;76668.72;5050762;28;20314;-69
2022/07/01 07:03:42;;;;;;;;;;;;;;;-142.75;100.00;76645.09;5050415;28;20298;-68
2022/07/01 07:06:07;;;;;;;;;;;;;;;-142.75;100.00;76617.53;5050661;28;19912;-67
2022/07/01 07:08:32;;;;;;;;;;;;;;;-142.75;100.00;76597.84;5032476;28;19916;-68
2022/07/01 07:10:58;;;;;;;;;;;;;;;-142.75;100.00;76584.06;5050699;28;19917;-69
2022/07/01 07:13:23;;;;;;;;;;;;;;;-142.75;100.00;76576.19;5050756;28;19919;-69
2022/07/01 07:15:49;;;;;;;;;;;;;;;-142.75;100.00;76576.19;5050573;28;20443;-69
2022/07/01 07:18:14;;;;;;;;;;;;;;;-142.75;100.00;76570.28;5049960;28;19913;-69
2022/07/01 07:20:39;;;;;;;;;;;;;;;-142.75;100.00;76576.19;5033474;28;19917;-70
2022/07/01 07:23:05;;;;;;;;;;;;;;;-142.75;100.00;76558.47;5036296;28;19919;-68
2022/07/01 07:25:30;;;;;;;;;;;;;;;-142.75;100.00;76558.47;5053930;28;20389;-68
2022/07/01 07:27:55;;;;;;;;;;;;;;;-142.75;100.00;76550.59;5035445;28;19912;-67
2022/07/01 07:30:21;;;;;;;;;;;;;;;-142.75;100.00;76530.91;5054123;28;20002;-67
2022/07/01 07:32:46;;;;;;;;;;;;;;;-142.75;100.00;76548.63;5053870;28;19919;-67
2022/07/01 07:35:11;;;;;;;;;;;;;;;-142.75;100.00;76521.09;5053958;28;19917;-67
2022/07/01 07:37:37;;;;;;;;;;;;;;;-142.75;100.00;76523.06;5053444;28;19952;-67
2022/07/01 07:40:03;;;;;;;;;;;;;;;-142.75;100.00;76528.97;5053843;28;19966;-66
2022/07/01 07:42:29;;;;;;;;;;;;;;;-142.75;100.00;76560.44;5053691;28;20492;-67
2022/07/01 07:44:54;;;;;;;;;;;;;;;-142.75;100.00;76523.06;5053786;28;19956;-68
2022/07/01 07:47:19;;;;;;;;;;;;;;;-142.75;100.00;76501.41;5053684;28;19912;-67
2022/07/01 07:49:44;;;;;;;;;;;;;;;-142.75;100.00;76528.97;5035509;28;20007;-67
2022/07/01 07:52:09;;;;;;;;;;;;;;;-142.75;100.00;76532.88;5053628;28;19920;-67
2022/07/01 07:54:35;;;;;;;;;;;;;;;-142.75;100.00;76540.75;5053722;28;19913;-67
2022/07/01 07:57:00;;;;;;;;;;;;;;;-142.75;100.00;76505.34;5053535;28;19948;-68
2022/07/01 07:59:25;;;;;;;;;;;;;;;-142.75;100.00;76479.75;5035345;28;20348;-67
2022/07/01 08:01:50;;;;;;;;;;;;;;;-142.75;100.00;76464.00;5053078;28;19921;-67
2022/07/01 08:04:16;;;;;;;;;;;;;;;-142.75;100.00;76422.66;5053361;28;19923;-67
2022/07/01 08:06:41;;;;;;;;;;;;;;;-142.75;100.00;76369.50;5053708;28;19916;-67
2022/07/01 08:09:06;;;;;;;;;;;;;;;-142.75;100.00;76369.50;5052861;28;20379;-71
2022/07/01 08:11:32;;;;;;;;;;;;;;;-142.75;100.00;76389.19;5054175;28;19913;-69
2022/07/01 08:13:57;;;;;;;;;;;;;;;-142.75;100.00;76379.34;5036245;28;19956;-69
2022/07/01 08:16:22;;;;;;;;;;;;;;;-142.75;100.00;76383.28;5054089;28;19924;-69
2022/07/01 08:18:48;;;;;;;;;;;;;;;-142.75;100.00;76389.19;5053767;28;19917;-70
2022/07/01 08:21:13;;;;;;;;;;;;;;;-142.75;100.00;76410.84;5053989;28;19917;-68
2022/07/01 08:23:38;;;;;;;;;;;;;;;-142.75;100.00;76393.13;5053804;28;19913;-70
2022/07/01 08:26:03;;;;;;;;;;;;;;;-142.75;100.00;76381.31;5036053;28;19935;-70
2022/07/01 08:28:29;;;;;;;;;;;;;;;-142.75;100.00;76414.78;5053337;28;19916;-69
2022/07/01 08:30:54;;;;;;;;;;;;;;;-142.75;100.00;76393.13;5034858;28;20007;-69
2022/07/01 08:33:20;;;;;;;;;;;;;;;-142.75;100.00;76412.81;5053518;28;20001;-70
2022/07/01 08:35:45;;;;;;;;;;;;;;;-142.75;100.00;76428.56;5053846;28;19959;-70
2022/07/01 08:38:10;;;;;;;;;;;;;;;-142.75;100.00;76420.69;5053314;28;20670;-69
2022/07/01 08:40:36;;;;;;;;;;;;;;;-142.75;100.00;76428.56;5053536;28;20290;-69
2022/07/01 08:43:03;;;;;;;;;;;;;;;-142.75;100.00;76383.28;5053666;28;19919;-69
2022/07/01 08:45:29;;;;;;;;;;;;;;;-142.75;100.00;76377.38;5053616;28;19948;-69
2022/07/01 08:47:57;;;;;;;;;;;;;;;-142.75;100.00;76353.78;5053104;28;19913;-68
2022/07/01 08:50:23;;;;;;;;;;;;;;;-142.75;100.00;76353.78;5053469;28;19989;-69
2022/07/01 08:52:48;;;;;;;;;;;;;;;-142.75;100.00;76351.81;5053493;28;20417;-69
2022/07/01 08:55:13;;;;;;;;;;;;;;;-142.75;100.00;76340.00;5053322;28;19959;-68
2022/07/01 08:57:38;;;;;;;;;;;;;;;-142.75;100.00;76353.78;5053333;28;19952;-69
2022/07/01 09:00:05;;;;;;;;;;;;;;;-142.75;100.00;76357.69;5052992;28;20007;-69
2022/07/01 09:02:53;;;;;;;;;;;;;;;-142.75;100.00;76349.81;5053057;28;19924;-69
2022/07/01 09:05:18;;;;;;;;;;;;;;;-142.75;100.00;76310.47;5053203;28;19966;-69
2022/07/01 09:07:43;;;;;;;;;;;;;;;-142.75;100.00;76277.00;5052870;28;19921;-69
2022/07/01 09:10:13;;;;;;;;;;;;;;;-142.75;100.00;76261.25;5052899;28;19967;-69
2022/07/01 09:12:39;;;;;;;;;;;;;;;-142.75;100.00;76255.34;5053024;28;19912;-69
2022/07/01 09:15:18;;;;;;;;;;;;;;;-142.75;100.00;76255.34;5052921;28;19920;-69
2022/07/01 09:17:43;;;;;;;;;;;;;;;-142.75;100.00;76316.38;5052724;28;20370;-68
2022/07/01 09:20:22;;;;;;;;;;;;;;;-142.75;100.00;76395.09;5052785;28;20017;-70
2022/07/01 09:23:02;;;;;;;;;;;;;;;-142.75;100.00;76377.38;5053002;28;20066;-69
2022/07/01 09:25:33;;;;;;;;;;;;;;;-142.75;100.00;76351.81;5034865;28;19920;-72
2022/07/01 09:28:05;;;;;;;;;;;;;;;-142.75;100.00;76332.13;5052309;28;19966;-69
2022/07/01 09:30:32;;;;;;;;;;;;;;;-142.75;100.00;76294.72;5052731;28;20515;-70
2022/07/01 09:33:24;;;;;;;;;;;;;;;-142.75;100.00;76267.16;5052727;28;19999;-70
2022/07/01 09:35:50;;;;;;;;;;;;;;;-142.75;100.00;76302.59;5049628;28;19914;-70
2022/07/01 09:38:15;;;;;;;;;;;;;;;-142.75;100.00;76271.09;5053263;28;19924;-70
2022/07/01 09:40:54;;;;;;;;;;;;;;;-142.75;100.00;76290.78;5034628;28;19921;-70
2022/07/01 09:43:21;;;;;;;;;;;;;;;-142.75;100.00;76367.53;5052177;28;19919;-70
2022/07/01 09:45:49;;;;;;;;;;;;;;;-142.75;100.00;76377.38;5052109;28;19966;-69
2022/07/01 09:48:15;;;;;;;;;;;;;;;-142.75;100.00;76369.50;5052044;28;20000;-70
2022/07/01 09:50:40;;;;;;;;;;;;;;;-142.75;100.00;76365.56;5034619;28;20401;-70
2022/07/01 09:53:05;;;;;;;;;;;;;;;-142.75;100.00;76381.31;5052349;28;19920;-70
2022/07/01 09:55:31;;;;;;;;;;;;;;;-142.75;100.00;76314.41;5052468;28;19916;-69
2022/07/01 09:57:56;;;;;;;;;;;;;;;-142.75;100.00;76292.75;5034030;28;19913;-69
2022/07/01 10:00:22;;;;;;;;;;;;;;;-142.75;100.00;76269.13;5034374;28;20012;-69
2022/07/01 10:02:47;;;;;;;;;;;;;;;-142.75;100.00;76225.81;5052098;28;19920;-68
2022/07/01 10:05:15;;;;;;;;;;;;;;;-142.75;100.00;76215.97;5034264;28;19917;-70
2022/07/01 10:07:55;;;;;;;;;;;;;;;-142.75;100.00;76208.09;5052176;28;19913;-69
2022/07/01 10:10:39;;;;;;;;;;;;;;;-142.75;100.00;76212.03;5052286;28;19913;-69
2022/07/01 10:13:06;;;;;;;;;;;;;;;-142.75;100.00;76243.53;5034299;28;19960;-69
2022/07/01 10:15:31;;;;;;;;;;;;;;;-142.75;100.00;76219.91;5052065;28;19913;-70
2022/07/01 10:17:56;;;;;;;;;;;;;;;-142.75;100.00;76227.78;5033836;28;19959;-70
2022/07/01 10:20:26;;;;;;;;;;;;;;;-142.75;100.00;76263.22;5052072;28;19919;-70
2022/07/01 10:22:59;;;;;;;;;;;;;;;-142.75;100.00;76263.22;5051985;28;19916;-69
2022/07/01 10:25:35;;;;;;;;;;;;;;;-142.75;100.00;76208.09;5034180;28;19920;-69
2022/07/01 10:28:25;;;;;;;;;;;;;;;-142.75;100.00;76172.69;5033657;28;19920;-70
2022/07/01 10:30:55;;;;;;;;;;;;;;;-142.75;100.00;76168.75;5051974;28;19912;-70
2022/07/01 10:33:44;;;;;;;;;;;;;;;-142.75;100.00;76137.25;5034173;28;19920;-70
2022/07/01 10:36:17;;;;;;;;;;;;;;;-142.75;94.89;76154.97;5025925;28;20299;-69
2022/07/01 10:39:06;;;;;;;;;;;;;;;-142.75;99.77;76219.91;5051412;28;20322;-70
2022/07/01 10:41:34;;;;;;;;;;;;;;;-142.75;100.00;76204.16;5033565;28;20410;-70
2022/07/01 10:44:05;;;;;;;;;;;;;;;-142.75;100.00;76184.50;5033960;28;20378;-69
2022/07/01 10:46:44;;;;;;;;;;;;;;;-142.75;100.00;76160.88;5051835;28;20003;-69
2022/07/01 10:49:29;;;;;;;;;;;;;;;-142.75;92.54;76239.59;5051245;28;20366;-68
2022/07/01 10:51:57;;;;;;;;;;;;;;;-142.75;100.00;76381.31;5023184;28;19919;-69
2022/07/01 10:54:40;;;;;;;;;;;;;;;-142.75;100.00;76375.41;5051650;28;19962;-70
2022/07/01 10:57:23;;;;;;;;;;;;;;;-142.75;100.00;76369.50;5054673;28;19917;-69
2022/07/01 10:59:50;;;;;;;;;;;;;;;-142.75;100.00;76326.22;5055238;28;19964;-68
2022/07/01 11:02:17;;;;;;;;;;;;;;;-142.75;100.00;76267.16;5055337;28;19924;-70
2022/07/01 11:04:42;;;;;;;;;;;;;;;-142.75;96.07;76243.53;5055407;28;19912;-68
2022/07/01 11:07:08;;;;;;;;;;;;;;;-142.75;91.95;76298.66;5055167;28;20004;-69
2022/07/01 11:09:33;;;;;;;;;;;;;;;-142.75;100.00;76302.59;5051541;28;20015;-67
2022/07/01 11:11:59;;;;;;;;;;;;;;;-142.75;99.33;76263.22;5037324;28;19917;-70
2022/07/01 11:14:25;;;;;;;;;;;;;;;-142.75;91.41;76259.28;5055303;28;19913;-70
2022/07/01 11:16:51;;;;;;;;;;;;;;;-142.75;93.05;76263.22;5055358;28;19912;-69
2022/07/01 11:19:19;;;;;;;;;;;;;;;-142.75;89.41;76255.34;5054791;28;19967;-69
2022/07/01 11:21:51;;;;;;;;;;;;;;;-142.75;100.00;76239.59;5055017;28;20352;-69
2022/07/01 11:24:16;;;;;;;;;;;;;;;-142.75;100.00;76253.38;5054988;28;19986;-70
2022/07/01 11:26:41;;;;;;;;;;;;;;;-142.75;95.98;76341.97;5037163;28;19913;-70
2022/07/01 11:29:09;;;;;;;;;;;;;;;-142.75;94.50;76385.25;5054612;28;19913;-69
2022/07/01 11:31:34;;;;;;;;;;;;;;;-142.75;96.77;76440.38;5054979;28;19916;-68
2022/07/01 11:33:59;;;;;;;;;;;;;;;-142.75;100.00;76444.31;5054894;28;20042;-70
2022/07/01 11:39:24;;;;;;;;;;;;;;;-142.75;100.00;76479.75;5054766;28;19924;-69
2022/07/01 11:41:56;;;;;;;;;;;;;;;-142.75;100.00;76528.97;5054685;28;19939;-67
2022/07/01 11:44:51;;;;;;;;;;;;;;;-142.75;100.00;76554.53;5054784;28;19944;-70
2022/07/01 11:47:23;;;;;;;;;;;;;;;-142.75;100.00;76576.19;5041541;28;20372;-70
2022/07/01 11:49:49;;;;;;;;;;;;;;;-142.75;100.00;76564.38;5054271;28;19955;-70
2022/07/01 11:52:15;;;;;;;;;;;;;;;-142.75;100.00;76562.41;5054465;28;19967;-70
2022/07/01 11:54:40;;;;;;;;;;;;;;;-142.75;100.00;76558.47;5054400;28;19966;-70
2022/07/01 11:57:09;;;;;;;;;;;;;;;-142.75;100.00;76566.34;5053395;28;19912;-70
2022/07/01 11:59:34;;;;;;;;;;;;;;;-142.75;100.00;76601.78;5052113;28;19913;-70
2022/07/01 12:01:59;;;;;;;;;;;;;;;-142.75;100.00;76597.84;5052547;28;19917;-70
2022/07/01 12:04:24;;;;;;;;;;;;;;;-142.75;100.00;76652.97;5026487;28;19917;-70
2022/07/01 12:06:50;;;;;;;;;;;;;;;-142.75;100.00;76658.88;5044478;28;19920;-70
2022/07/01 12:09:16;;;;;;;;;;;;;;;-142.75;100.00;76684.47;5046712;28;19917;-70
2022/07/01 12:11:46;;;;;;;;;;;;;;;-142.75;100.00;76680.53;5043801;28;19917;-70
2022/07/01 12:14:11;;;;;;;;;;;;;;;-142.75;100.00;76682.50;5024110;28;19921;-70
2022/07/01 12:16:40;;;;;;;;;;;;;;;-142.75;100.00;76682.50;5043793;28;19939;-70
2022/07/01 12:19:05;;;;;;;;;;;;;;;-142.75;100.00;76680.53;5042179;28;19916;-69
2022/07/01 12:21:30;;;;;;;;;;;;;;;-142.75;100.00;76664.78;5051296;28;19921;-71
2022/07/01 12:24:05;;;;;;;;;;;;;;;-142.75;100.00;76649.03;5054010;28;19913;-70
2022/07/01 12:26:30;;;;;;;;;;;;;;;-142.75;100.00;76609.66;5053955;28;20461;-69